sensor_id;sensor_type;location;lat;lon;timestamp;temperature;humidity
21563;DHT22;10942;47.894;11.424;2022-09-23T00:00:31;5.00;99.90
21563;DHT22;10942;47.894;11.424;2022-09-23T00:02:57;5.00;99.90
21563;DHT22;10942;47.894;11.424;2022-09-23T00:05:28;5.10;99.90
21563;DHT22;10942;47.894;11.424;2022-09-23T00:07:54;5.10;99.90
21563;DHT22;10942;47.894;11.424;2022-09-23T00:10:21;5.10;99.90
21563;DHT22;10942;47.894;11.424;2022-09-23T00:12:47;5.10;99.90
21563;DHT22;10942;47.894;11.424;2022-09-23T00:15:13;5.10;99.90
21563;DHT22;10942;47.894;11.424;2022-09-23T00:17:39;5.10;99.90
21563;DHT22;10942;47.894;11.424;2022-09-23T00:20:06;5.10;99.90
21563;DHT22;10942;47.894;11.424;2022-09-23T00:22:34;5.10;99.90
21563;DHT22;10942;47.894;11.424;2022-09-23T00:25:02;5.10;99.90
21563;DHT22;10942;47.894;11.424;2022-09-23T00:27:28;5.00;99.90
21563;DHT22;10942;47.894;11.424;2022-09-23T00:29:54;5.00;99.90
21563;DHT22;10942;47.894;11.424;2022-09-23T00:32:19;4.90;99.90
21563;DHT22;10942;47.894;11.424;2022-09-23T00:34:45;4.90;99.90
21563;DHT22;10942;47.894;11.424;2022-09-23T00:37:13;4.90;99.90
21563;DHT22;10942;47.894;11.424;2022-09-23T00:39:39;4.90;99.90
21563;DHT22;10942;47.894;11.424;2022-09-23T00:42:05;4.90;99.90
21563;DHT22;10942;47.894;11.424;2022-09-23T00:44:49;4.80;99.90
21563;DHT22;10942;47.894;11.424;2022-09-23T00:47:19;4.80;99.90
21563;DHT22;10942;47.894;11.424;2022-09-23T00:49:49;4.80;99.90
21563;DHT22;10942;47.894;11.424;2022-09-23T00:52:17;4.70;99.90
21563;DHT22;10942;47.894;11.424;2022-09-23T00:54:45;4.70;99.90
21563;DHT22;10942;47.894;11.424;2022-09-23T00:57:14;4.70;99.90
21563;DHT22;10942;47.894;11.424;2022-09-23T00:59:41;4.70;99.90
21563;DHT22;10942;47.894;11.424;2022-09-23T01:02:07;4.60;99.90
21563;DHT22;10942;47.894;11.424;2022-09-23T01:04:34;4.60;99.90
21563;DHT22;10942;47.894;11.424;2022-09-23T01:07:00;4.60;99.90
21563;DHT22;10942;47.894;11.424;2022-09-23T01:09:26;4.50;99.90
21563;DHT22;10942;47.894;11.424;2022-09-23T01:12:03;4.50;99.90
21563;DHT22;10942;47.894;11.424;2022-09-23T01:14:44;4.50;99.90
21563;DHT22;10942;47.894;11.424;2022-09-23T01:23:02;4.40;99.90
21563;DHT22;10942;47.894;11.424;2022-09-23T01:25:39;4.40;99.90
21563;DHT22;10942;47.894;11.424;2022-09-23T01:28:25;4.40;99.90
21563;DHT22;10942;47.894;11.424;2022-09-23T01:31:03;4.40;99.90
21563;DHT22;10942;47.894;11.424;2022-09-23T01:33:53;4.40;99.90
21563;DHT22;10942;47.894;11.424;2022-09-23T01:36:39;4.30;99.90
21563;DHT22;10942;47.894;11.424;2022-09-23T01:39:17;4.30;99.90
21563;DHT22;10942;47.894;11.424;2022-09-23T01:44:33;4.40;99.90
21563;DHT22;10942;47.894;11.424;2022-09-23T01:47:09;4.30;99.90
21563;DHT22;10942;47.894;11.424;2022-09-23T01:50:02;4.30;99.90
21563;DHT22;10942;47.894;11.424;2022-09-23T01:52:48;4.30;99.90
21563;DHT22;10942;47.894;11.424;2022-09-23T01:55:27;4.30;99.90
21563;DHT22;10942;47.894;11.424;2022-09-23T01:58:05;4.30;99.90
21563;DHT22;10942;47.894;11.424;2022-09-23T02:00:35;4.30;99.90
21563;DHT22;10942;47.894;11.424;2022-09-23T02:03:12;4.20;99.90
21563;DHT22;10942;47.894;11.424;2022-09-23T02:05:49;4.20;99.90
21563;DHT22;10942;47.894;11.424;2022-09-23T02:08:20;4.10;99.90
21563;DHT22;10942;47.894;11.424;2022-09-23T02:10:54;4.10;99.90
21563;DHT22;10942;47.894;11.424;2022-09-23T02:13:27;4.10;99.90
21563;DHT22;10942;47.894;11.424;2022-09-23T02:15:58;4.10;99.90
21563;DHT22;10942;47.894;11.424;2022-09-23T02:18:29;4.10;99.90
21563;DHT22;10942;47.894;11.424;2022-09-23T02:21:01;4.10;99.90
21563;DHT22;10942;47.894;11.424;2022-09-23T02:23:48;4.00;99.90
21563;DHT22;10942;47.894;11.424;2022-09-23T02:26:20;4.00;99.90
21563;DHT22;10942;47.894;11.424;2022-09-23T02:31:39;3.90;99.90
21563;DHT22;10942;47.894;11.424;2022-09-23T02:37:22;3.90;99.90
21563;DHT22;10942;47.894;11.424;2022-09-23T02:45:17;3.90;99.90
21563;DHT22;10942;47.894;11.424;2022-09-23T02:47:47;3.80;99.90
21563;DHT22;10942;47.894;11.424;2022-09-23T02:50:13;3.80;99.90
21563;DHT22;10942;47.894;11.424;2022-09-23T02:52:39;3.70;99.90
21563;DHT22;10942;47.894;11.424;2022-09-23T02:55:07;3.70;99.90
21563;DHT22;10942;47.894;11.424;2022-09-23T02:57:34;3.70;99.90
21563;DHT22;10942;47.894;11.424;2022-09-23T03:00:00;3.70;99.90
21563;DHT22;10942;47.894;11.424;2022-09-23T03:05:24;3.30;99.90
21563;DHT22;10942;47.894;11.424;2022-09-23T03:11:17;3.30;99.90
21563;DHT22;10942;47.894;11.424;2022-09-23T03:21:44;3.30;99.90
21563;DHT22;10942;47.894;11.424;2022-09-23T03:24:11;3.40;99.90
21563;DHT22;10942;47.894;11.424;2022-09-23T03:26:39;3.40;99.90
21563;DHT22;10942;47.894;11.424;2022-09-23T03:29:09;3.40;99.90
21563;DHT22;10942;47.894;11.424;2022-09-23T03:31:36;3.40;99.90
21563;DHT22;10942;47.894;11.424;2022-09-23T03:34:12;3.40;99.90
21563;DHT22;10942;47.894;11.424;2022-09-23T03:36:45;3.40;99.90
21563;DHT22;10942;47.894;11.424;2022-09-23T03:41:52;3.40;99.90
21563;DHT22;10942;47.894;11.424;2022-09-23T03:44:20;3.40;99.90
21563;DHT22;10942;47.894;11.424;2022-09-23T03:46:46;3.40;99.90
21563;DHT22;10942;47.894;11.424;2022-09-23T03:51:42;3.40;99.90
21563;DHT22;10942;47.894;11.424;2022-09-23T03:54:08;3.40;99.90
21563;DHT22;10942;47.894;11.424;2022-09-23T03:56:34;3.40;99.90
21563;DHT22;10942;47.894;11.424;2022-09-23T03:59:00;3.40;99.90
21563;DHT22;10942;47.894;11.424;2022-09-23T04:01:25;3.40;99.90
21563;DHT22;10942;47.894;11.424;2022-09-23T04:03:51;3.30;99.90
21563;DHT22;10942;47.894;11.424;2022-09-23T04:06:18;3.30;99.90
21563;DHT22;10942;47.894;11.424;2022-09-23T04:08:43;3.40;99.90
21563;DHT22;10942;47.894;11.424;2022-09-23T04:11:09;3.30;99.90
21563;DHT22;10942;47.894;11.424;2022-09-23T04:13:35;3.30;99.90
21563;DHT22;10942;47.894;11.424;2022-09-23T04:16:01;3.30;99.90
21563;DHT22;10942;47.894;11.424;2022-09-23T04:18:26;3.20;99.90
21563;DHT22;10942;47.894;11.424;2022-09-23T04:20:59;3.20;99.90
21563;DHT22;10942;47.894;11.424;2022-09-23T04:23:25;3.10;99.90
21563;DHT22;10942;47.894;11.424;2022-09-23T04:25:51;3.10;99.90
21563;DHT22;10942;47.894;11.424;2022-09-23T04:28:18;3.10;99.90
21563;DHT22;10942;47.894;11.424;2022-09-23T04:30:43;3.10;99.90
21563;DHT22;10942;47.894;11.424;2022-09-23T04:33:11;3.10;99.90
21563;DHT22;10942;47.894;11.424;2022-09-23T04:35:37;3.00;99.90
21563;DHT22;10942;47.894;11.424;2022-09-23T04:38:05;3.00;99.90
21563;DHT22;10942;47.894;11.424;2022-09-23T04:40:30;3.00;99.90
21563;DHT22;10942;47.894;11.424;2022-09-23T04:42:56;3.00;99.90
21563;DHT22;10942;47.894;11.424;2022-09-23T04:45:22;3.00;99.90
21563;DHT22;10942;47.894;11.424;2022-09-23T04:47:48;2.90;99.90
21563;DHT22;10942;47.894;11.424;2022-09-23T04:50:13;2.90;99.90
21563;DHT22;10942;47.894;11.424;2022-09-23T04:52:39;2.90;99.90
21563;DHT22;10942;47.894;11.424;2022-09-23T04:55:06;2.90;99.90
21563;DHT22;10942;47.894;11.424;2022-09-23T04:57:32;2.90;99.90
21563;DHT22;10942;47.894;11.424;2022-09-23T04:59:59;2.90;99.90
21563;DHT22;10942;47.894;11.424;2022-09-23T05:02:25;2.90;99.90
21563;DHT22;10942;47.894;11.424;2022-09-23T05:04:51;2.90;99.90
21563;DHT22;10942;47.894;11.424;2022-09-23T05:07:17;2.90;99.90
21563;DHT22;10942;47.894;11.424;2022-09-23T05:09:44;3.00;99.90
21563;DHT22;10942;47.894;11.424;2022-09-23T05:12:10;3.00;99.90
21563;DHT22;10942;47.894;11.424;2022-09-23T05:14:36;3.00;99.90
21563;DHT22;10942;47.894;11.424;2022-09-23T05:17:04;3.00;99.90
21563;DHT22;10942;47.894;11.424;2022-09-23T05:19:29;3.00;99.90
21563;DHT22;10942;47.894;11.424;2022-09-23T05:21:55;3.10;99.90
21563;DHT22;10942;47.894;11.424;2022-09-23T05:24:21;3.30;99.90
21563;DHT22;10942;47.894;11.424;2022-09-23T05:26:48;3.40;99.90
21563;DHT22;10942;47.894;11.424;2022-09-23T05:29:14;3.70;99.90
21563;DHT22;10942;47.894;11.424;2022-09-23T05:31:40;4.00;99.90
21563;DHT22;10942;47.894;11.424;2022-09-23T05:34:06;4.30;99.90
21563;DHT22;10942;47.894;11.424;2022-09-23T05:36:34;4.50;99.90
21563;DHT22;10942;47.894;11.424;2022-09-23T05:39:00;4.70;99.90
21563;DHT22;10942;47.894;11.424;2022-09-23T05:41:26;4.90;99.90
21563;DHT22;10942;47.894;11.424;2022-09-23T05:43:53;5.00;99.90
21563;DHT22;10942;47.894;11.424;2022-09-23T05:46:22;5.40;99.90
21563;DHT22;10942;47.894;11.424;2022-09-23T05:48:48;5.70;99.90
21563;DHT22;10942;47.894;11.424;2022-09-23T05:51:19;5.80;99.90
21563;DHT22;10942;47.894;11.424;2022-09-23T05:53:45;6.10;99.90
21563;DHT22;10942;47.894;11.424;2022-09-23T05:56:16;6.40;99.90
21563;DHT22;10942;47.894;11.424;2022-09-23T05:58:43;6.70;99.90
21563;DHT22;10942;47.894;11.424;2022-09-23T06:01:15;6.90;99.90
21563;DHT22;10942;47.894;11.424;2022-09-23T06:03:45;7.10;99.90
21563;DHT22;10942;47.894;11.424;2022-09-23T06:06:13;7.40;99.90
21563;DHT22;10942;47.894;11.424;2022-09-23T06:08:39;7.70;99.90
21563;DHT22;10942;47.894;11.424;2022-09-23T06:11:06;8.00;99.90
21563;DHT22;10942;47.894;11.424;2022-09-23T06:13:34;8.30;99.90
21563;DHT22;10942;47.894;11.424;2022-09-23T06:16:12;8.50;99.90
21563;DHT22;10942;47.894;11.424;2022-09-23T06:18:43;8.70;99.90
21563;DHT22;10942;47.894;11.424;2022-09-23T06:21:14;8.90;99.90
21563;DHT22;10942;47.894;11.424;2022-09-23T06:23:40;9.10;99.90
21563;DHT22;10942;47.894;11.424;2022-09-23T06:26:08;9.40;99.90
21563;DHT22;10942;47.894;11.424;2022-09-23T06:28:36;9.80;99.90
21563;DHT22;10942;47.894;11.424;2022-09-23T06:31:05;10.10;99.90
21563;DHT22;10942;47.894;11.424;2022-09-23T06:33:33;10.50;99.90
21563;DHT22;10942;47.894;11.424;2022-09-23T06:36:01;10.80;99.90
21563;DHT22;10942;47.894;11.424;2022-09-23T06:38:27;11.00;99.90
21563;DHT22;10942;47.894;11.424;2022-09-23T06:40:55;11.20;99.90
21563;DHT22;10942;47.894;11.424;2022-09-23T06:43:23;11.50;99.90
21563;DHT22;10942;47.894;11.424;2022-09-23T06:45:53;11.80;99.90
21563;DHT22;10942;47.894;11.424;2022-09-23T06:48:19;11.90;99.90
21563;DHT22;10942;47.894;11.424;2022-09-23T06:50:45;12.10;99.90
21563;DHT22;10942;47.894;11.424;2022-09-23T06:53:14;12.20;99.90
21563;DHT22;10942;47.894;11.424;2022-09-23T06:55:39;12.50;99.90
21563;DHT22;10942;47.894;11.424;2022-09-23T06:58:06;12.70;99.90
21563;DHT22;10942;47.894;11.424;2022-09-23T07:00:34;12.90;99.90
21563;DHT22;10942;47.894;11.424;2022-09-23T07:03:00;12.70;99.90
21563;DHT22;10942;47.894;11.424;2022-09-23T07:05:26;12.30;99.90
21563;DHT22;10942;47.894;11.424;2022-09-23T07:07:52;12.30;99.90
21563;DHT22;10942;47.894;11.424;2022-09-23T07:10:18;12.40;99.90
21563;DHT22;10942;47.894;11.424;2022-09-23T07:12:44;12.30;99.90
21563;DHT22;10942;47.894;11.424;2022-09-23T07:15:10;12.70;99.90
21563;DHT22;10942;47.894;11.424;2022-09-23T07:17:36;12.80;99.90
21563;DHT22;10942;47.894;11.424;2022-09-23T07:20:02;13.00;99.90
21563;DHT22;10942;47.894;11.424;2022-09-23T07:22:28;13.20;99.90
21563;DHT22;10942;47.894;11.424;2022-09-23T07:24:54;13.00;99.90
21563;DHT22;10942;47.894;11.424;2022-09-23T07:27:23;13.20;99.90
21563;DHT22;10942;47.894;11.424;2022-09-23T07:29:49;13.30;99.90
21563;DHT22;10942;47.894;11.424;2022-09-23T07:32:16;13.00;99.90
21563;DHT22;10942;47.894;11.424;2022-09-23T07:34:42;13.00;99.90
21563;DHT22;10942;47.894;11.424;2022-09-23T07:37:09;13.00;99.90
21563;DHT22;10942;47.894;11.424;2022-09-23T07:39:35;13.00;99.90
21563;DHT22;10942;47.894;11.424;2022-09-23T07:42:02;12.50;99.90
21563;DHT22;10942;47.894;11.424;2022-09-23T07:44:29;12.00;99.90
21563;DHT22;10942;47.894;11.424;2022-09-23T07:46:56;11.80;99.90
21563;DHT22;10942;47.894;11.424;2022-09-23T07:49:23;12.10;99.90
21563;DHT22;10942;47.894;11.424;2022-09-23T07:51:49;12.00;99.90
21563;DHT22;10942;47.894;11.424;2022-09-23T07:54:15;12.00;99.90
21563;DHT22;10942;47.894;11.424;2022-09-23T07:56:43;12.10;99.90
21563;DHT22;10942;47.894;11.424;2022-09-23T07:59:13;12.00;99.90
21563;DHT22;10942;47.894;11.424;2022-09-23T08:01:50;12.10;99.90
21563;DHT22;10942;47.894;11.424;2022-09-23T08:04:25;12.10;99.90
21563;DHT22;10942;47.894;11.424;2022-09-23T08:07:00;12.10;99.90
21563;DHT22;10942;47.894;11.424;2022-09-23T08:09:32;12.20;99.90
21563;DHT22;10942;47.894;11.424;2022-09-23T08:11:58;12.20;99.90
21563;DHT22;10942;47.894;11.424;2022-09-23T08:14:24;12.00;99.90
21563;DHT22;10942;47.894;11.424;2022-09-23T08:16:50;12.10;99.90
21563;DHT22;10942;47.894;11.424;2022-09-23T08:19:16;12.10;99.90
21563;DHT22;10942;47.894;11.424;2022-09-23T08:21:43;12.30;99.90
21563;DHT22;10942;47.894;11.424;2022-09-23T08:24:14;12.40;99.90
21563;DHT22;10942;47.894;11.424;2022-09-23T08:26:41;12.40;99.90
21563;DHT22;10942;47.894;11.424;2022-09-23T08:29:07;12.50;99.90
21563;DHT22;10942;47.894;11.424;2022-09-23T08:31:35;12.60;99.90
21563;DHT22;10942;47.894;11.424;2022-09-23T08:34:01;12.70;99.90
21563;DHT22;10942;47.894;11.424;2022-09-23T08:36:27;12.90;99.90
21563;DHT22;10942;47.894;11.424;2022-09-23T08:38:53;13.10;99.90
21563;DHT22;10942;47.894;11.424;2022-09-23T08:44:12;13.20;99.90
21563;DHT22;10942;47.894;11.424;2022-09-23T08:46:51;13.20;99.90
21563;DHT22;10942;47.894;11.424;2022-09-23T08:49:27;13.30;99.90
21563;DHT22;10942;47.894;11.424;2022-09-23T08:51:55;13.40;99.90
21563;DHT22;10942;47.894;11.424;2022-09-23T08:54:26;13.70;99.90
21563;DHT22;10942;47.894;11.424;2022-09-23T08:56:55;13.60;99.90
21563;DHT22;10942;47.894;11.424;2022-09-23T08:59:40;13.60;99.90
21563;DHT22;10942;47.894;11.424;2022-09-23T09:02:26;13.60;99.90
21563;DHT22;10942;47.894;11.424;2022-09-23T09:04:54;13.80;99.90
21563;DHT22;10942;47.894;11.424;2022-09-23T09:07:24;13.90;99.90
21563;DHT22;10942;47.894;11.424;2022-09-23T09:23:54;14.50;99.90
21563;DHT22;10942;47.894;11.424;2022-09-23T09:26:32;14.50;99.90
21563;DHT22;10942;47.894;11.424;2022-09-23T09:29:11;14.70;99.90
21563;DHT22;10942;47.894;11.424;2022-09-23T09:31:48;14.90;99.90
21563;DHT22;10942;47.894;11.424;2022-09-23T09:34:41;15.10;99.90
21563;DHT22;10942;47.894;11.424;2022-09-23T09:37:12;15.40;99.90
21563;DHT22;10942;47.894;11.424;2022-09-23T09:39:39;15.60;99.90
21563;DHT22;10942;47.894;11.424;2022-09-23T09:42:05;16.00;99.90
21563;DHT22;10942;47.894;11.424;2022-09-23T09:47:38;17.20;99.90
21563;DHT22;10942;47.894;11.424;2022-09-23T09:50:13;18.10;99.90
21563;DHT22;10942;47.894;11.424;2022-09-23T09:52:43;19.20;99.90
21563;DHT22;10942;47.894;11.424;2022-09-23T09:58:00;21.00;99.90
21563;DHT22;10942;47.894;11.424;2022-09-23T10:03:02;22.40;99.90
21563;DHT22;10942;47.894;11.424;2022-09-23T10:05:33;22.90;99.90
21563;DHT22;10942;47.894;11.424;2022-09-23T10:10:58;23.00;99.90
21563;DHT22;10942;47.894;11.424;2022-09-23T10:13:25;22.60;99.90
21563;DHT22;10942;47.894;11.424;2022-09-23T10:15:55;22.00;99.90
21563;DHT22;10942;47.894;11.424;2022-09-23T10:18:36;22.00;99.90
21563;DHT22;10942;47.894;11.424;2022-09-23T10:21:11;21.70;99.90
21563;DHT22;10942;47.894;11.424;2022-09-23T10:23:43;21.30;99.90
21563;DHT22;10942;47.894;11.424;2022-09-23T10:26:10;20.70;99.90
21563;DHT22;10942;47.894;11.424;2022-09-23T10:28:51;20.50;99.90
21563;DHT22;10942;47.894;11.424;2022-09-23T10:33:51;19.40;99.90
21563;DHT22;10942;47.894;11.424;2022-09-23T10:36:17;19.50;99.90
21563;DHT22;10942;47.894;11.424;2022-09-23T10:38:43;19.30;99.90
21563;DHT22;10942;47.894;11.424;2022-09-23T10:41:22;19.20;99.90
21563;DHT22;10942;47.894;11.424;2022-09-23T11:01:19;18.20;99.90
21563;DHT22;10942;47.894;11.424;2022-09-23T11:07:14;17.90;99.90
21563;DHT22;10942;47.894;11.424;2022-09-23T11:15:10;17.70;99.90
21563;DHT22;10942;47.894;11.424;2022-09-23T11:23:24;17.80;99.90
21563;DHT22;10942;47.894;11.424;2022-09-23T11:26:34;17.90;99.90
21563;DHT22;10942;47.894;11.424;2022-09-23T11:29:29;18.00;99.90
21563;DHT22;10942;47.894;11.424;2022-09-23T11:32:23;17.80;99.90
21563;DHT22;10942;47.894;11.424;2022-09-23T11:37:20;17.80;99.90
21563;DHT22;10942;47.894;11.424;2022-09-23T11:39:58;17.70;99.90
21563;DHT22;10942;47.894;11.424;2022-09-23T11:42:32;17.80;99.90
21563;DHT22;10942;47.894;11.424;2022-09-23T11:45:13;17.80;99.90
21563;DHT22;10942;47.894;11.424;2022-09-23T11:47:49;17.70;99.90
21563;DHT22;10942;47.894;11.424;2022-09-23T11:50:49;17.80;99.90
21563;DHT22;10942;47.894;11.424;2022-09-23T11:53:32;17.80;99.90
21563;DHT22;10942;47.894;11.424;2022-09-23T11:56:31;17.70;99.90
21563;DHT22;10942;47.894;11.424;2022-09-23T12:01:52;17.80;99.90
21563;DHT22;10942;47.894;11.424;2022-09-23T12:04:32;17.80;99.90
21563;DHT22;10942;47.894;11.424;2022-09-23T12:07:27;17.70;99.90
21563;DHT22;10942;47.894;11.424;2022-09-23T12:10:06;17.80;99.90
21563;DHT22;10942;47.894;11.424;2022-09-23T12:12:54;17.80;99.90
21563;DHT22;10942;47.894;11.424;2022-09-23T12:18:26;18.00;99.90
21563;DHT22;10942;47.894;11.424;2022-09-23T12:23:51;18.00;99.90
21563;DHT22;10942;47.894;11.424;2022-09-23T12:26:23;18.10;99.90
21563;DHT22;10942;47.894;11.424;2022-09-23T12:28:53;18.00;99.90
21563;DHT22;10942;47.894;11.424;2022-09-23T12:31:23;17.90;99.90
21563;DHT22;10942;47.894;11.424;2022-09-23T12:33:57;17.90;99.90
21563;DHT22;10942;47.894;11.424;2022-09-23T12:36:32;17.90;99.90
21563;DHT22;10942;47.894;11.424;2022-09-23T12:39:16;17.80;99.90
21563;DHT22;10942;47.894;11.424;2022-09-23T12:41:48;17.70;99.90
21563;DHT22;10942;47.894;11.424;2022-09-23T12:44:40;17.80;99.90
21563;DHT22;10942;47.894;11.424;2022-09-23T12:49:46;17.70;99.90
21563;DHT22;10942;47.894;11.424;2022-09-23T12:54:45;17.80;99.90
21563;DHT22;10942;47.894;11.424;2022-09-23T13:05:20;17.90;99.90
21563;DHT22;10942;47.894;11.424;2022-09-23T13:08:19;17.90;99.90
21563;DHT22;10942;47.894;11.424;2022-09-23T13:10:59;18.00;99.90
21563;DHT22;10942;47.894;11.424;2022-09-23T13:13:43;17.90;99.90
21563;DHT22;10942;47.894;11.424;2022-09-23T13:16:39;17.90;99.90
21563;DHT22;10942;47.894;11.424;2022-09-23T13:22:02;17.90;99.90
21563;DHT22;10942;47.894;11.424;2022-09-23T13:24:51;17.90;99.90
21563;DHT22;10942;47.894;11.424;2022-09-23T13:27:22;17.90;99.90
21563;DHT22;10942;47.894;11.424;2022-09-23T13:32:52;18.00;99.90
21563;DHT22;10942;47.894;11.424;2022-09-23T13:35:26;18.00;99.90
21563;DHT22;10942;47.894;11.424;2022-09-23T13:37:55;17.90;99.90
21563;DHT22;10942;47.894;11.424;2022-09-23T13:40:27;17.90;99.90
21563;DHT22;10942;47.894;11.424;2022-09-23T13:43:02;17.80;99.90
21563;DHT22;10942;47.894;11.424;2022-09-23T13:45:29;17.80;99.90
21563;DHT22;10942;47.894;11.424;2022-09-23T13:48:07;17.80;99.90
21563;DHT22;10942;47.894;11.424;2022-09-23T13:50:37;17.80;99.90
21563;DHT22;10942;47.894;11.424;2022-09-23T13:53:07;17.80;99.90
21563;DHT22;10942;47.894;11.424;2022-09-23T13:55:36;17.80;99.90
21563;DHT22;10942;47.894;11.424;2022-09-23T14:00:37;17.80;99.90
21563;DHT22;10942;47.894;11.424;2022-09-23T14:03:37;17.90;99.90
21563;DHT22;10942;47.894;11.424;2022-09-23T14:06:13;17.90;99.90
21563;DHT22;10942;47.894;11.424;2022-09-23T14:08:44;17.90;99.90
21563;DHT22;10942;47.894;11.424;2022-09-23T14:11:17;18.00;99.90
21563;DHT22;10942;47.894;11.424;2022-09-23T14:13:45;18.00;99.90
21563;DHT22;10942;47.894;11.424;2022-09-23T14:16:12;18.00;99.90
21563;DHT22;10942;47.894;11.424;2022-09-23T14:18:45;18.00;99.90
21563;DHT22;10942;47.894;11.424;2022-09-23T14:21:30;17.90;99.90
21563;DHT22;10942;47.894;11.424;2022-09-23T14:29:41;17.90;99.90
21563;DHT22;10942;47.894;11.424;2022-09-23T14:32:15;17.90;99.90
21563;DHT22;10942;47.894;11.424;2022-09-23T14:37:38;17.90;99.90
21563;DHT22;10942;47.894;11.424;2022-09-23T14:45:35;17.90;99.90
21563;DHT22;10942;47.894;11.424;2022-09-23T14:48:15;17.80;99.90
21563;DHT22;10942;47.894;11.424;2022-09-23T14:51:00;17.70;99.90
21563;DHT22;10942;47.894;11.424;2022-09-23T14:53:40;17.70;99.90
21563;DHT22;10942;47.894;11.424;2022-09-23T15:01:38;17.60;99.90
21563;DHT22;10942;47.894;11.424;2022-09-23T15:06:43;17.40;99.90
21563;DHT22;10942;47.894;11.424;2022-09-23T15:09:19;17.40;99.90
21563;DHT22;10942;47.894;11.424;2022-09-23T15:11:46;17.40;99.90
21563;DHT22;10942;47.894;11.424;2022-09-23T15:14:12;17.40;99.90
21563;DHT22;10942;47.894;11.424;2022-09-23T15:16:39;17.30;99.90
21563;DHT22;10942;47.894;11.424;2022-09-23T15:19:05;17.40;99.90
21563;DHT22;10942;47.894;11.424;2022-09-23T15:21:43;17.30;99.90
21563;DHT22;10942;47.894;11.424;2022-09-23T15:26:59;17.30;99.90
21563;DHT22;10942;47.894;11.424;2022-09-23T15:29:25;17.20;99.90
21563;DHT22;10942;47.894;11.424;2022-09-23T15:31:51;17.20;99.90
21563;DHT22;10942;47.894;11.424;2022-09-23T15:34:17;17.10;99.90
21563;DHT22;10942;47.894;11.424;2022-09-23T15:36:46;17.00;99.90
21563;DHT22;10942;47.894;11.424;2022-09-23T15:39:13;17.00;99.90
21563;DHT22;10942;47.894;11.424;2022-09-23T15:41:39;16.90;99.90
21563;DHT22;10942;47.894;11.424;2022-09-23T15:44:16;16.90;99.90
21563;DHT22;10942;47.894;11.424;2022-09-23T15:46:46;16.80;99.90
21563;DHT22;10942;47.894;11.424;2022-09-23T15:49:39;16.80;99.90
21563;DHT22;10942;47.894;11.424;2022-09-23T15:52:05;16.80;99.90
21563;DHT22;10942;47.894;11.424;2022-09-23T15:54:32;16.70;99.90
21563;DHT22;10942;47.894;11.424;2022-09-23T15:56:58;16.70;99.90
21563;DHT22;10942;47.894;11.424;2022-09-23T15:59:26;16.70;99.90
21563;DHT22;10942;47.894;11.424;2022-09-23T16:01:53;16.60;99.90
21563;DHT22;10942;47.894;11.424;2022-09-23T16:04:20;16.50;99.90
21563;DHT22;10942;47.894;11.424;2022-09-23T16:06:46;16.40;99.90
21563;DHT22;10942;47.894;11.424;2022-09-23T16:09:13;16.40;99.90
21563;DHT22;10942;47.894;11.424;2022-09-23T16:11:43;16.40;99.90
21563;DHT22;10942;47.894;11.424;2022-09-23T16:14:12;16.30;99.90
21563;DHT22;10942;47.894;11.424;2022-09-23T16:16:39;16.20;99.90
21563;DHT22;10942;47.894;11.424;2022-09-23T16:19:06;16.20;99.90
21563;DHT22;10942;47.894;11.424;2022-09-23T16:21:32;16.10;99.90
21563;DHT22;10942;47.894;11.424;2022-09-23T16:23:58;16.00;99.90
21563;DHT22;10942;47.894;11.424;2022-09-23T16:26:32;16.00;99.90
21563;DHT22;10942;47.894;11.424;2022-09-23T16:28:59;15.90;99.90
21563;DHT22;10942;47.894;11.424;2022-09-23T16:31:26;15.80;99.90
21563;DHT22;10942;47.894;11.424;2022-09-23T16:33:54;15.70;99.90
21563;DHT22;10942;47.894;11.424;2022-09-23T16:36:23;15.70;99.90
21563;DHT22;10942;47.894;11.424;2022-09-23T16:38:51;15.60;99.90
21563;DHT22;10942;47.894;11.424;2022-09-23T16:41:24;15.50;99.90
21563;DHT22;10942;47.894;11.424;2022-09-23T16:46:18;15.30;99.90
21563;DHT22;10942;47.894;11.424;2022-09-23T16:48:44;15.10;99.90
21563;DHT22;10942;47.894;11.424;2022-09-23T16:51:16;15.10;99.90
21563;DHT22;10942;47.894;11.424;2022-09-23T16:53:43;15.00;99.90
21563;DHT22;10942;47.894;11.424;2022-09-23T16:56:10;14.90;99.90
21563;DHT22;10942;47.894;11.424;2022-09-23T16:58:38;14.90;99.90
21563;DHT22;10942;47.894;11.424;2022-09-23T17:01:08;14.90;99.90
21563;DHT22;10942;47.894;11.424;2022-09-23T17:03:54;14.80;99.90
21563;DHT22;10942;47.894;11.424;2022-09-23T17:06:20;14.70;99.90
21563;DHT22;10942;47.894;11.424;2022-09-23T17:08:48;14.60;99.90
21563;DHT22;10942;47.894;11.424;2022-09-23T17:11:15;14.50;99.90
21563;DHT22;10942;47.894;11.424;2022-09-23T17:13:42;14.40;99.90
21563;DHT22;10942;47.894;11.424;2022-09-23T17:16:22;14.40;99.90
21563;DHT22;10942;47.894;11.424;2022-09-23T17:18:48;14.30;99.90
21563;DHT22;10942;47.894;11.424;2022-09-23T17:21:14;14.40;99.90
21563;DHT22;10942;47.894;11.424;2022-09-23T17:23:39;14.20;99.90
21563;DHT22;10942;47.894;11.424;2022-09-23T17:26:05;14.10;99.90
21563;DHT22;10942;47.894;11.424;2022-09-23T17:28:34;14.00;99.90
21563;DHT22;10942;47.894;11.424;2022-09-23T17:31:02;14.00;99.90
21563;DHT22;10942;47.894;11.424;2022-09-23T17:33:29;13.90;99.90
21563;DHT22;10942;47.894;11.424;2022-09-23T17:35:56;13.90;99.90
21563;DHT22;10942;47.894;11.424;2022-09-23T17:38:25;13.80;99.90
21563;DHT22;10942;47.894;11.424;2022-09-23T17:40:53;13.70;99.90
21563;DHT22;10942;47.894;11.424;2022-09-23T17:43:19;13.70;99.90
21563;DHT22;10942;47.894;11.424;2022-09-23T17:45:55;13.60;99.90
21563;DHT22;10942;47.894;11.424;2022-09-23T17:48:22;13.50;99.90
21563;DHT22;10942;47.894;11.424;2022-09-23T17:53:19;13.40;99.90
21563;DHT22;10942;47.894;11.424;2022-09-23T17:55:53;13.40;99.90
21563;DHT22;10942;47.894;11.424;2022-09-23T17:58:23;13.40;99.90
21563;DHT22;10942;47.894;11.424;2022-09-23T18:00:49;13.30;99.90
21563;DHT22;10942;47.894;11.424;2022-09-23T18:03:14;13.30;99.90
21563;DHT22;10942;47.894;11.424;2022-09-23T18:05:40;13.30;99.90
21563;DHT22;10942;47.894;11.424;2022-09-23T18:08:05;13.20;99.90
21563;DHT22;10942;47.894;11.424;2022-09-23T18:10:31;13.10;99.90
21563;DHT22;10942;47.894;11.424;2022-09-23T18:12:57;13.20;99.90
21563;DHT22;10942;47.894;11.424;2022-09-23T18:15:22;13.10;99.90
21563;DHT22;10942;47.894;11.424;2022-09-23T18:17:48;13.10;99.90
21563;DHT22;10942;47.894;11.424;2022-09-23T18:20:14;13.00;99.90
21563;DHT22;10942;47.894;11.424;2022-09-23T18:22:40;13.00;99.90
21563;DHT22;10942;47.894;11.424;2022-09-23T18:25:06;12.90;99.90
21563;DHT22;10942;47.894;11.424;2022-09-23T18:27:33;12.80;99.90